createdAt,value
2022-09-21T00:01:33.123Z,8.15
2022-09-21T00:04:02.949Z,8.27
2022-09-21T00:06:33.775Z,8.44
2022-09-21T00:09:05.247Z,8.26
2022-09-21T00:11:35.119Z,8.44
2022-09-21T00:14:07.187Z,8.30
2022-09-21T00:16:35.916Z,8.11
2022-09-21T00:19:04.829Z,8.09
2022-09-21T00:21:34.722Z,8.42
2022-09-21T00:24:04.445Z,8.59
2022-09-21T00:26:33.498Z,7.97
2022-09-21T00:29:03.382Z,8.19
2022-09-21T00:31:32.645Z,8.05
2022-09-21T00:34:03.493Z,8.03
2022-09-21T00:36:31.444Z,7.94
2022-09-21T00:39:01.003Z,8.18
2022-09-21T00:41:32.424Z,8.22
2022-09-21T00:44:26.711Z,7.98
2022-09-21T00:46:58.545Z,7.62
2022-09-21T00:49:28.844Z,7.80
2022-09-21T00:51:58.847Z,7.87
2022-09-21T00:54:29.221Z,7.91
2022-09-21T00:57:03.323Z,7.99
2022-09-21T00:59:35.957Z,7.86
2022-09-21T01:02:04.759Z,8.23
2022-09-21T01:04:33.654Z,7.91
2022-09-21T01:07:06.358Z,7.71
2022-09-21T01:09:35.443Z,7.85
2022-09-21T01:12:16.579Z,8.11
2022-09-21T01:14:58.891Z,8.11
2022-09-21T01:17:37.768Z,8.33
2022-09-21T01:20:25.443Z,8.32
2022-09-21T01:23:09.445Z,8.00
2022-09-21T01:28:57.835Z,8.27
2022-09-21T01:31:30.743Z,8.09
2022-09-21T01:34:06.918Z,7.92
2022-09-21T01:36:35.970Z,7.82
2022-09-21T01:39:09.045Z,7.81
2022-09-21T01:41:41.332Z,8.04
2022-09-21T01:44:14.735Z,7.67
2022-09-21T01:46:42.808Z,7.54
2022-09-21T01:49:14.290Z,7.62
2022-09-21T01:51:46.787Z,7.65
2022-09-21T01:54:20.289Z,7.86
2022-09-21T01:56:52.057Z,7.82
2022-09-21T01:59:27.629Z,7.78
2022-09-21T02:01:59.815Z,7.53
2022-09-21T02:04:28.609Z,7.44
2022-09-21T02:06:57.240Z,7.59
2022-09-21T02:09:25.595Z,7.75
2022-09-21T02:11:53.848Z,7.63
2022-09-21T02:14:25.340Z,7.54
2022-09-21T02:17:03.483Z,7.50
2022-09-21T02:19:41.998Z,7.48
2022-09-21T02:22:14.646Z,7.35
2022-09-21T02:24:45.215Z,7.25
2022-09-21T02:27:21.378Z,7.24
2022-09-21T02:29:55.190Z,7.32
2022-09-21T02:32:30.394Z,7.40
2022-09-21T02:35:04.789Z,7.63
2022-09-21T02:37:39.912Z,7.59
2022-09-21T02:40:14.963Z,7.66
2022-09-21T02:42:46.546Z,7.65
2022-09-21T02:45:22.494Z,7.28
2022-09-21T02:47:56.765Z,7.43
2022-09-21T02:50:32.970Z,6.82
2022-09-21T02:53:03.034Z,6.92
2022-09-21T02:55:32.662Z,6.86
2022-09-21T02:58:05.762Z,7.23
2022-09-21T03:00:35.515Z,7.08
2022-09-21T03:03:17.125Z,7.33
2022-09-21T03:05:46.238Z,7.18
2022-09-21T03:08:14.230Z,7.33
2022-09-21T03:10:41.986Z,7.53
2022-09-21T03:13:10.153Z,7.43
2022-09-21T03:15:40.223Z,7.23
2022-09-21T03:18:11.627Z,7.16
2022-09-21T03:20:41.017Z,7.00
2022-09-21T03:23:09.625Z,7.13
2022-09-21T03:25:38.117Z,7.22
2022-09-21T03:28:06.519Z,7.18
2022-09-21T03:30:35.569Z,6.96
2022-09-21T03:33:06.505Z,7.08
2022-09-21T03:35:34.975Z,7.24
2022-09-21T03:38:03.446Z,7.14
2022-09-21T03:40:31.575Z,6.54
2022-09-21T03:42:59.741Z,6.88
2022-09-21T03:45:28.340Z,6.68
2022-09-21T03:47:58.285Z,6.89
2022-09-21T03:50:29.178Z,6.85
2022-09-21T03:52:57.644Z,6.87
2022-09-21T03:55:26.117Z,6.78
2022-09-21T03:57:54.040Z,6.87
2022-09-21T04:00:22.542Z,6.81
2022-09-21T04:02:50.534Z,6.90
2022-09-21T04:05:19.540Z,6.77
2022-09-21T04:07:49.410Z,6.71
2022-09-21T04:10:19.589Z,6.78
2022-09-21T04:12:48.561Z,6.85
2022-09-21T04:15:19.585Z,6.53
2022-09-21T04:17:48.701Z,6.93
2022-09-21T04:20:16.741Z,6.85
2022-09-21T04:22:44.871Z,6.88
2022-09-21T04:25:15.160Z,6.88
2022-09-21T04:27:43.325Z,6.41
2022-09-21T04:30:14.172Z,6.65
2022-09-21T04:32:42.197Z,6.98
2022-09-21T04:35:11.063Z,7.41
2022-09-21T04:37:39.166Z,7.22
2022-09-21T04:40:09.763Z,7.04
2022-09-21T04:42:39.445Z,6.97
2022-09-21T04:45:08.993Z,6.95
2022-09-21T04:47:37.674Z,7.15
2022-09-21T04:50:06.476Z,6.88
2022-09-21T04:52:34.748Z,6.73
2022-09-21T04:55:02.632Z,6.71
2022-09-21T04:57:30.906Z,6.51
2022-09-21T05:00:00.195Z,6.59
2022-09-21T05:02:28.064Z,6.68
2022-09-21T05:04:56.947Z,6.61
2022-09-21T05:07:25.073Z,6.49
2022-09-21T05:10:04.166Z,6.42
2022-09-21T05:12:32.604Z,6.46
2022-09-21T05:15:02.463Z,6.14
2022-09-21T05:17:30.512Z,6.52
2022-09-21T05:19:58.887Z,6.30
2022-09-21T05:22:26.769Z,6.29
2022-09-21T05:24:56.131Z,6.36
2022-09-21T05:27:24.023Z,6.34
2022-09-21T05:29:53.279Z,6.63
2022-09-21T05:32:33.686Z,6.26
2022-09-21T05:35:13.237Z,6.20
2022-09-21T05:41:28.366Z,6.44
2022-09-21T05:43:57.272Z,6.50
2022-09-21T05:46:44.529Z,6.72
2022-09-21T05:49:20.599Z,6.43
2022-09-21T05:51:59.448Z,6.49
2022-09-21T05:54:40.685Z,6.38
2022-09-21T05:57:17.513Z,6.27
2022-09-21T05:59:56.972Z,6.51
2022-09-21T06:02:40.181Z,6.86
2022-09-21T06:05:12.922Z,6.93
2022-09-21T06:07:41.645Z,7.01
2022-09-21T06:10:10.872Z,7.14
2022-09-21T06:12:38.586Z,7.11
2022-09-21T06:15:12.538Z,7.19
2022-09-21T06:17:40.561Z,6.88
2022-09-21T06:20:11.458Z,6.66
2022-09-21T06:22:39.426Z,6.48
2022-09-21T06:25:08.712Z,6.87
2022-09-21T06:27:39.552Z,6.75
2022-09-21T06:30:08.850Z,7.01
2022-09-21T06:32:39.500Z,7.30
2022-09-21T06:35:11.231Z,7.80
2022-09-21T06:37:40.174Z,7.87
2022-09-21T06:40:09.863Z,7.86
2022-09-21T06:42:37.606Z,8.33
2022-09-21T06:45:06.537Z,8.29
2022-09-21T06:47:34.234Z,8.14
2022-09-21T06:50:02.038Z,8.18
2022-09-21T06:52:33.757Z,8.26
2022-09-21T06:55:01.869Z,8.40
2022-09-21T06:57:29.566Z,8.38
2022-09-21T06:59:57.610Z,8.69
2022-09-21T07:02:25.443Z,8.59
2022-09-21T07:04:53.547Z,8.94
2022-09-21T07:07:23.606Z,9.03
2022-09-21T07:10:15.801Z,9.02
2022-09-21T07:12:43.988Z,9.27
2022-09-21T07:15:13.796Z,8.97
2022-09-21T07:17:43.044Z,9.23
2022-09-21T07:20:11.059Z,8.86
2022-09-21T07:22:38.924Z,9.46
2022-09-21T07:25:08.642Z,10.09
2022-09-21T07:27:36.305Z,9.88
2022-09-21T07:30:05.134Z,9.94
2022-09-21T07:32:32.866Z,9.59
2022-09-21T07:35:01.199Z,8.94
2022-09-21T07:37:29.482Z,9.12
2022-09-21T07:39:57.968Z,9.58
2022-09-21T07:42:30.218Z,9.88
2022-09-21T07:45:04.863Z,10.81
2022-09-21T07:47:33.104Z,9.58
2022-09-21T07:50:01.397Z,10.12
2022-09-21T07:52:29.356Z,10.74
2022-09-21T07:55:00.272Z,11.07
2022-09-21T07:57:47.536Z,11.13
2022-09-21T08:00:15.927Z,10.16
2022-09-21T08:02:47.490Z,11.09
2022-09-21T08:05:15.996Z,12.01
2022-09-21T08:07:43.733Z,11.77
2022-09-21T08:10:11.793Z,12.05
2022-09-21T08:12:40.848Z,11.89
2022-09-21T08:15:25.045Z,11.71
2022-09-21T08:17:58.673Z,11.60
2022-09-21T08:20:26.438Z,12.55
2022-09-21T08:22:56.801Z,12.43
2022-09-21T08:25:24.825Z,12.67
2022-09-21T08:27:58.821Z,13.01
2022-09-21T08:30:27.985Z,12.65
2022-09-21T08:32:56.219Z,11.95
2022-09-21T08:35:23.961Z,12.17
2022-09-21T08:37:54.816Z,12.63
2022-09-21T08:40:23.040Z,13.74
2022-09-21T08:43:00.061Z,14.16
2022-09-21T08:45:35.114Z,14.35
2022-09-21T08:48:06.809Z,15.84
2022-09-21T08:50:39.135Z,16.16
2022-09-21T08:53:11.746Z,15.68
2022-09-21T08:55:39.545Z,15.46
2022-09-21T08:58:22.345Z,15.13
2022-09-21T09:01:02.497Z,14.92
2022-09-21T09:03:56.018Z,15.95
2022-09-21T09:06:31.717Z,17.44
2022-09-21T09:09:20.196Z,18.30
2022-09-21T09:12:11.057Z,20.57
2022-09-21T09:14:57.295Z,20.32
2022-09-21T09:17:40.027Z,21.15
2022-09-21T09:20:12.845Z,20.16
2022-09-21T09:22:46.919Z,20.43
2022-09-21T09:25:22.250Z,20.23
2022-09-21T09:27:53.944Z,20.82
2022-09-21T09:30:26.092Z,21.78
2022-09-21T09:33:00.028Z,22.12
2022-09-21T09:35:31.176Z,20.79
2022-09-21T09:38:05.957Z,20.41
2022-09-21T09:41:03.532Z,20.17
2022-09-21T09:43:46.880Z,20.07
2022-09-21T09:46:22.944Z,21.20
2022-09-21T09:49:13.950Z,21.33
2022-09-21T09:51:44.382Z,22.45
2022-09-21T09:54:16.267Z,20.30
2022-09-21T09:56:44.203Z,21.25
2022-09-21T09:59:20.864Z,20.52
2022-09-21T10:02:02.525Z,20.14
2022-09-21T10:04:30.807Z,19.23
2022-09-21T10:06:58.437Z,18.19
2022-09-21T10:09:28.793Z,20.10
2022-09-21T10:12:01.063Z,20.12
2022-09-21T10:14:34.530Z,20.82
2022-09-21T10:17:08.257Z,21.10
2022-09-21T10:19:38.444Z,21.18
2022-09-21T10:22:06.793Z,20.36
2022-09-21T10:24:38.446Z,20.40
2022-09-21T10:27:10.340Z,20.23
2022-09-21T10:29:43.488Z,19.98
2022-09-21T10:32:24.351Z,20.30
2022-09-21T10:35:04.656Z,19.49
2022-09-21T10:37:34.811Z,20.49
2022-09-21T10:40:03.117Z,21.13
2022-09-21T10:42:36.280Z,20.96
2022-09-21T10:45:16.532Z,20.87
2022-09-21T10:47:48.591Z,20.85
2022-09-21T10:50:26.763Z,20.19
2022-09-21T10:53:00.613Z,19.56
2022-09-21T10:55:30.935Z,19.70
2022-09-21T10:57:59.004Z,19.08
2022-09-21T11:00:41.632Z,18.90
2022-09-21T11:03:45.073Z,20.39
2022-09-21T11:06:25.744Z,20.43
2022-09-21T11:08:57.446Z,20.55
2022-09-21T11:11:43.705Z,20.93
2022-09-21T11:14:20.746Z,20.69
2022-09-21T11:16:56.835Z,20.08
2022-09-21T11:19:32.527Z,20.66
2022-09-21T11:22:09.394Z,20.54
2022-09-21T11:24:46.394Z,20.73
2022-09-21T11:27:18.875Z,20.93
2022-09-21T11:29:56.416Z,20.61
2022-09-21T11:32:37.068Z,21.10
2022-09-21T11:35:24.562Z,20.82
2022-09-21T11:38:05.228Z,20.24
2022-09-21T11:40:47.475Z,18.99
2022-09-21T11:43:27.966Z,19.49
2022-09-21T11:46:02.762Z,19.42
2022-09-21T11:48:45.373Z,20.01
2022-09-21T11:51:28.605Z,19.51
2022-09-21T11:54:31.960Z,19.99
2022-09-21T11:57:08.231Z,20.06
2022-09-21T11:59:51.117Z,20.33
2022-09-21T12:02:52.011Z,20.53
2022-09-21T12:05:25.622Z,21.14
2022-09-21T12:08:20.527Z,21.81
2022-09-21T12:11:03.468Z,21.90
2022-09-21T12:13:42.147Z,22.23
2022-09-21T12:16:18.021Z,21.14
2022-09-21T12:18:54.736Z,20.69
2022-09-21T12:21:25.240Z,20.02
2022-09-21T12:23:56.630Z,19.95
2022-09-21T12:26:29.018Z,19.14
2022-09-21T12:29:01.781Z,19.31
2022-09-21T12:31:36.667Z,18.55
2022-09-21T12:34:11.165Z,18.50
2022-09-21T12:36:44.376Z,18.62
2022-09-21T12:39:19.716Z,18.69
2022-09-21T12:41:55.055Z,19.10
2022-09-21T12:44:29.872Z,18.92
2022-09-21T12:47:09.380Z,19.01
2022-09-21T12:49:42.976Z,18.96
2022-09-21T12:52:22.747Z,19.08
2022-09-21T12:54:58.730Z,18.90
2022-09-21T12:57:58.849Z,19.26
2022-09-21T13:00:39.872Z,18.93
2022-09-21T13:03:15.439Z,19.03
2022-09-21T13:05:54.815Z,19.23
2022-09-21T13:08:28.747Z,18.78
2022-09-21T13:11:05.054Z,18.19
2022-09-21T13:13:36.263Z,18.32
2022-09-21T13:16:05.624Z,18.27
2022-09-21T13:18:36.664Z,18.59
2022-09-21T13:21:17.823Z,18.49
2022-09-21T13:23:53.700Z,18.74
2022-09-21T13:26:36.219Z,19.50
2022-09-21T13:29:30.769Z,19.68
2022-09-21T13:32:00.853Z,19.66
2022-09-21T13:34:34.493Z,19.47
2022-09-21T13:37:36.048Z,19.40
2022-09-21T13:40:40.518Z,19.51
2022-09-21T13:43:20.594Z,19.56
2022-09-21T13:45:56.012Z,20.32
2022-09-21T13:48:29.553Z,20.27
2022-09-21T13:51:00.037Z,19.15
2022-09-21T13:53:34.183Z,19.51
2022-09-21T13:56:08.687Z,19.06
2022-09-21T13:58:42.005Z,17.99
2022-09-21T14:01:42.385Z,18.16
2022-09-21T14:04:20.105Z,17.98
2022-09-21T14:06:52.674Z,17.92
2022-09-21T14:09:25.045Z,17.50
2022-09-21T14:12:00.204Z,17.58
2022-09-21T14:14:32.744Z,17.58
2022-09-21T14:17:02.794Z,17.49
2022-09-21T14:20:04.636Z,17.48
2022-09-21T14:26:33.992Z,17.34
2022-09-21T14:29:09.636Z,17.28
2022-09-21T14:31:39.919Z,17.30
2022-09-21T14:34:15.393Z,17.63
2022-09-21T14:36:47.355Z,17.46
2022-09-21T14:39:18.503Z,17.19
2022-09-21T14:41:51.349Z,17.53
2022-09-21T14:44:21.901Z,17.35
2022-09-21T14:47:25.368Z,17.09
2022-09-21T14:50:15.454Z,16.99
2022-09-21T14:53:01.033Z,17.02
2022-09-21T14:55:41.841Z,16.82
2022-09-21T14:58:27.492Z,17.34
2022-09-21T15:00:55.845Z,17.08
2022-09-21T15:03:40.025Z,17.14
2022-09-21T15:06:38.067Z,17.12
2022-09-21T15:09:44.360Z,16.91
2022-09-21T15:12:19.182Z,16.93
2022-09-21T15:14:52.511Z,16.52
2022-09-21T15:17:26.300Z,16.52
2022-09-21T15:19:59.114Z,16.27
2022-09-21T15:22:29.383Z,16.17
2022-09-21T15:24:59.184Z,16.09
2022-09-21T15:27:33.385Z,15.86
2022-09-21T15:30:05.237Z,15.95
2022-09-21T15:32:37.920Z,16.06
2022-09-21T15:35:08.469Z,16.09
2022-09-21T15:37:39.588Z,16.04
2022-09-21T15:40:17.385Z,16.19
2022-09-21T15:43:00.990Z,16.37
2022-09-21T15:45:31.842Z,16.91
2022-09-21T15:47:59.493Z,16.73
2022-09-21T15:50:30.430Z,16.67
2022-09-21T15:53:05.005Z,16.62
2022-09-21T15:55:33.936Z,16.30
2022-09-21T15:58:04.295Z,16.25
2022-09-21T16:00:35.806Z,16.24
2022-09-21T16:03:06.829Z,16.15
2022-09-21T16:05:45.373Z,16.12
2022-09-21T16:08:27.323Z,15.96
2022-09-21T16:11:13.140Z,15.74
2022-09-21T16:13:58.733Z,15.69
2022-09-21T16:16:27.159Z,15.91
2022-09-21T16:18:56.362Z,15.61
2022-09-21T16:21:26.629Z,15.56
2022-09-21T16:23:58.172Z,15.56
2022-09-21T16:26:28.649Z,15.38
2022-09-21T16:29:18.710Z,15.23
2022-09-21T16:31:50.285Z,15.16
2022-09-21T16:34:22.764Z,15.00
2022-09-21T16:36:52.884Z,15.05
2022-09-21T16:39:22.698Z,14.98
2022-09-21T16:41:53.997Z,14.85
2022-09-21T16:44:25.505Z,14.73
2022-09-21T16:46:56.069Z,14.52
2022-09-21T16:49:30.034Z,14.63
2022-09-21T16:51:59.237Z,14.41
2022-09-21T16:54:28.965Z,14.35
2022-09-21T16:56:58.759Z,14.28
2022-09-21T16:59:27.543Z,14.07
2022-09-21T17:01:57.123Z,14.03
2022-09-21T17:04:27.276Z,13.89
2022-09-21T17:06:56.307Z,14.04
2022-09-21T17:09:29.413Z,13.87
2022-09-21T17:12:01.161Z,13.71
2022-09-21T17:14:34.956Z,13.64
2022-09-21T17:17:06.054Z,13.49
2022-09-21T17:19:34.743Z,13.48
2022-09-21T17:22:04.236Z,13.40
2022-09-21T17:24:49.144Z,13.30
2022-09-21T17:27:21.864Z,13.31
2022-09-21T17:29:50.653Z,13.04
2022-09-21T17:32:21.426Z,13.00
2022-09-21T17:34:53.204Z,12.83
2022-09-21T17:37:22.125Z,12.65
2022-09-21T17:39:50.051Z,12.56
2022-09-21T17:42:22.081Z,12.35
2022-09-21T17:44:59.637Z,12.20
2022-09-21T17:47:29.602Z,11.92
2022-09-21T17:50:02.919Z,11.80
2022-09-21T17:52:48.809Z,11.70
2022-09-21T17:55:17.231Z,11.63
2022-09-21T17:57:59.376Z,11.69
2022-09-21T18:00:50.507Z,11.36
2022-09-21T18:03:22.366Z,11.35
2022-09-21T18:05:51.845Z,11.10
2022-09-21T18:08:20.067Z,11.05
2022-09-21T18:10:58.818Z,11.13
2022-09-21T18:13:38.825Z,11.06
2022-09-21T18:16:21.932Z,11.08
2022-09-21T18:18:59.340Z,10.84
2022-09-21T18:21:28.062Z,10.73
2022-09-21T18:24:19.352Z,10.72
2022-09-21T18:26:48.290Z,10.41
2022-09-21T18:29:40.305Z,10.38
2022-09-21T18:32:32.549Z,10.46
2022-09-21T18:35:28.861Z,10.44
2022-09-21T18:38:18.211Z,10.31
2022-09-21T18:40:59.522Z,10.11
2022-09-21T18:43:34.920Z,10.10
2022-09-21T18:46:06.863Z,9.87
2022-09-21T18:48:52.773Z,9.81
2022-09-21T18:51:28.911Z,9.83
2022-09-21T18:53:57.989Z,10.22
2022-09-21T18:56:28.084Z,9.92
2022-09-21T18:58:57.179Z,9.87
2022-09-21T19:01:29.962Z,9.76
2022-09-21T19:03:58.298Z,9.74
2022-09-21T19:06:40.514Z,9.62
2022-09-21T19:09:18.636Z,9.50
2022-09-21T19:11:54.052Z,9.56
2022-09-21T19:14:28.275Z,9.39
2022-09-21T19:17:10.655Z,9.38
2022-09-21T19:19:49.644Z,9.43
2022-09-21T19:22:27.640Z,9.31
2022-09-21T19:25:04.048Z,9.35
2022-09-21T19:27:40.479Z,9.14
2022-09-21T19:30:11.965Z,9.15
2022-09-21T19:32:45.867Z,9.25
2022-09-21T19:35:18.939Z,8.96
2022-09-21T19:37:47.733Z,9.32
2022-09-21T19:40:16.685Z,9.14
2022-09-21T19:43:04.252Z,9.12
2022-09-21T19:45:42.578Z,9.03
2022-09-21T19:48:14.881Z,9.06
2022-09-21T19:50:48.288Z,8.95
2022-09-21T19:53:34.517Z,9.07
2022-09-21T19:56:20.783Z,8.88
2022-09-21T19:59:17.477Z,8.88
2022-09-21T20:01:52.782Z,8.76
2022-09-21T20:04:28.404Z,8.68
2022-09-21T20:07:03.509Z,8.51
2022-09-21T20:09:38.033Z,8.38
2022-09-21T20:12:16.069Z,8.41
2022-09-21T20:14:48.800Z,8.40
2022-09-21T20:17:22.132Z,8.52
2022-09-21T20:19:57.948Z,8.37
2022-09-21T20:22:34.675Z,8.30
2022-09-21T20:25:10.589Z,8.29
2022-09-21T20:27:41.512Z,8.14
2022-09-21T20:30:12.838Z,8.06
2022-09-21T20:32:44.508Z,8.11
2022-09-21T20:35:17.427Z,8.23
2022-09-21T20:37:45.742Z,8.12
2022-09-21T20:40:14.657Z,8.19
2022-09-21T20:42:43.682Z,8.00
2022-09-21T20:45:13.330Z,8.01
2022-09-21T20:47:41.300Z,8.00
2022-09-21T20:50:12.704Z,8.03
2022-09-21T20:52:43.050Z,7.88
2022-09-21T20:55:13.847Z,7.99
2022-09-21T20:57:42.185Z,7.87
2022-09-21T21:00:12.562Z,7.85
2022-09-21T21:02:40.809Z,7.73
2022-09-21T21:05:10.357Z,7.65
2022-09-21T21:07:38.549Z,7.63
2022-09-21T21:10:08.131Z,7.72
2022-09-21T21:12:36.134Z,7.62
2022-09-21T21:15:03.846Z,7.77
2022-09-21T21:17:31.805Z,7.71
2022-09-21T21:19:59.469Z,7.56
2022-09-21T21:22:27.400Z,7.50
2022-09-21T21:24:55.029Z,7.45
2022-09-21T21:27:25.717Z,7.46
2022-09-21T21:29:55.311Z,7.57
2022-09-21T21:32:25.517Z,7.74
2022-09-21T21:34:54.395Z,7.58
2022-09-21T21:37:24.793Z,7.43
2022-09-21T21:39:53.127Z,7.45
2022-09-21T21:42:22.016Z,7.31
2022-09-21T21:44:51.400Z,7.28
2022-09-21T21:50:07.778Z,7.18
2022-09-21T21:52:35.755Z,7.27
2022-09-21T21:55:03.493Z,7.18
2022-09-21T21:57:31.149Z,7.21
2022-09-21T22:00:00.177Z,7.20
2022-09-21T22:02:28.638Z,7.10
2022-09-21T22:04:56.306Z,7.04
2022-09-21T22:07:24.357Z,7.16
2022-09-21T22:09:52.013Z,7.14
2022-09-21T22:12:20.319Z,7.07
2022-09-21T22:14:47.902Z,6.98
2022-09-21T22:17:17.229Z,6.90
2022-09-21T22:19:45.527Z,6.86
2022-09-21T22:22:13.525Z,6.54
2022-09-21T22:24:41.160Z,6.78
2022-09-21T22:27:08.943Z,6.81
2022-09-21T22:29:36.594Z,6.73
2022-09-21T22:32:04.680Z,6.74
2022-09-21T22:34:33.761Z,6.89
2022-09-21T22:37:01.741Z,6.87
2022-09-21T22:39:29.392Z,7.00
2022-09-21T22:41:57.124Z,6.83
2022-09-21T22:44:24.759Z,6.68
2022-09-21T22:46:52.725Z,6.66
2022-09-21T22:49:20.369Z,6.64
2022-09-21T22:51:49.671Z,6.47
2022-09-21T22:54:17.363Z,6.43
2022-09-21T22:56:45.346Z,6.35
2022-09-21T22:59:12.972Z,6.38
2022-09-21T23:01:41.865Z,6.52
2022-09-21T23:04:11.388Z,6.37
2022-09-21T23:06:42.168Z,6.28
2022-09-21T23:09:14.721Z,6.28
2022-09-21T23:11:47.445Z,6.17
2022-09-21T23:14:16.689Z,6.29
2022-09-21T23:16:45.017Z,6.23
2022-09-21T23:19:16.250Z,6.20
2022-09-21T23:21:46.350Z,5.97
2022-09-21T23:24:15.309Z,5.85
2022-09-21T23:26:43.671Z,5.95
2022-09-21T23:29:12.946Z,6.12
2022-09-21T23:31:45.005Z,6.11
2022-09-21T23:34:13.482Z,6.04
2022-09-21T23:36:42.603Z,5.94
2022-09-21T23:39:11.688Z,5.83
2022-09-21T23:41:41.516Z,5.74
2022-09-21T23:44:09.588Z,5.82
2022-09-21T23:46:39.766Z,5.82
2022-09-21T23:49:07.922Z,5.93
2022-09-21T23:51:36.679Z,5.82
2022-09-21T23:54:05.059Z,5.77
2022-09-21T23:56:33.706Z,5.89
2022-09-21T23:59:03.134Z,5.85
